createdAt,value
2024-04-24T00:01:08.502Z,1.36
2024-04-24T00:03:46.889Z,0.68
2024-04-24T00:06:15.373Z,0.73
2024-04-24T00:08:42.408Z,-0.11
2024-04-24T00:11:09.375Z,0.81
2024-04-24T00:13:36.202Z,2.03
2024-04-24T00:16:03.506Z,0.76
2024-04-24T00:18:31.993Z,0.15
2024-04-24T00:20:59.027Z,1.85
2024-04-24T00:23:28.497Z,1.76
2024-04-24T00:26:04.648Z,1.68
2024-04-24T00:28:31.698Z,0.35
2024-04-24T00:31:04.356Z,0.57
2024-04-24T00:33:46.952Z,-0.32
2024-04-24T00:36:13.923Z,2.36
2024-04-24T00:38:46.266Z,1.28
2024-04-24T00:41:13.273Z,-0.69
2024-04-24T00:43:40.194Z,-0.61
2024-04-24T00:46:15.527Z,1.06
2024-04-24T00:48:46.082Z,1.05
2024-04-24T00:51:15.533Z,0.87
2024-04-24T00:53:42.608Z,0.48
2024-04-24T00:56:21.938Z,0.31
2024-04-24T00:58:50.485Z,-0.48
2024-04-24T01:01:22.871Z,0.53
2024-04-24T01:03:49.849Z,0.95
2024-04-24T01:06:16.937Z,1.25
2024-04-24T01:08:49.165Z,1.03
2024-04-24T01:11:16.310Z,0.60
2024-04-24T01:13:46.353Z,1.29
2024-04-24T01:16:21.636Z,-0.48
2024-04-24T01:18:56.203Z,-0.78
2024-04-24T01:21:38.792Z,0.72
2024-04-24T01:24:23.873Z,-0.65
2024-04-24T01:26:51.524Z,0.75
2024-04-24T01:29:18.586Z,0.98
2024-04-24T01:31:45.620Z,1.78
2024-04-24T01:34:12.595Z,1.95
2024-04-24T01:36:42.830Z,1.78
2024-04-24T01:39:12.084Z,0.92
2024-04-24T01:41:38.835Z,0.98
2024-04-24T01:44:08.232Z,2.08
2024-04-24T01:46:35.006Z,1.63
2024-04-24T01:49:01.848Z,1.91
2024-04-24T01:51:28.622Z,0.66
2024-04-24T01:53:56.574Z,2.07
2024-04-24T01:56:23.636Z,1.91
2024-04-24T01:58:55.435Z,0.81
2024-04-24T02:01:23.286Z,2.16
2024-04-24T02:03:52.710Z,1.64
2024-04-24T02:06:20.195Z,0.43
2024-04-24T02:08:46.903Z,0.81
2024-04-24T02:11:18.896Z,1.87
2024-04-24T02:13:46.242Z,1.72
2024-04-24T02:16:13.174Z,0.13
2024-04-24T02:18:40.030Z,0.99
2024-04-24T02:21:10.651Z,1.99
2024-04-24T02:23:41.116Z,1.42
2024-04-24T02:26:09.233Z,1.64
2024-04-24T02:28:36.747Z,1.51
2024-04-24T02:31:03.651Z,1.52
2024-04-24T02:33:32.815Z,-0.76
2024-04-24T02:36:03.690Z,0.64
2024-04-24T02:38:31.641Z,1.87
2024-04-24T02:40:58.735Z,-0.12
2024-04-24T02:43:33.820Z,1.64
2024-04-24T02:46:03.191Z,1.75
2024-04-24T02:48:32.383Z,0.69
2024-04-24T02:51:01.615Z,1.56
2024-04-24T02:53:28.401Z,1.05
2024-04-24T02:55:55.321Z,1.46
2024-04-24T02:58:22.198Z,0.76
2024-04-24T03:00:49.092Z,1.84
2024-04-24T03:03:18.284Z,0.31
2024-04-24T03:05:45.090Z,2.10
2024-04-24T03:08:15.299Z,1.94
2024-04-24T03:10:45.398Z,1.03
2024-04-24T03:13:18.821Z,0.79
2024-04-24T03:15:45.743Z,0.75
2024-04-24T03:18:17.291Z,-0.17
2024-04-24T03:20:46.376Z,0.51
2024-04-24T03:23:13.540Z,-1.10
2024-04-24T03:25:40.529Z,-0.27
2024-04-24T03:28:09.988Z,0.49
2024-04-24T03:30:36.750Z,0.84
2024-04-24T03:33:06.146Z,0.47
2024-04-24T03:35:33.165Z,2.20
2024-04-24T03:38:00.028Z,0.85
2024-04-24T03:40:26.852Z,1.27
2024-04-24T03:42:56.067Z,-0.07
2024-04-24T03:45:22.960Z,0.83
2024-04-24T03:47:52.277Z,0.29
2024-04-24T03:50:21.516Z,0.68
2024-04-24T03:52:48.526Z,-1.02
2024-04-24T03:55:15.306Z,0.98
2024-04-24T03:57:42.162Z,0.89
2024-04-24T04:00:09.425Z,0.65
2024-04-24T04:02:42.690Z,1.92
2024-04-24T04:05:09.700Z,1.54
2024-04-24T04:07:36.693Z,1.20
2024-04-24T04:10:04.373Z,1.19
2024-04-24T04:12:31.214Z,0.99
2024-04-24T04:14:58.012Z,0.94
2024-04-24T04:17:24.907Z,1.57
2024-04-24T04:19:51.810Z,0.99
2024-04-24T04:22:20.824Z,2.26
2024-04-24T04:24:48.128Z,0.81
2024-04-24T04:27:15.017Z,-0.68
2024-04-24T04:29:41.809Z,1.97
2024-04-24T04:32:09.653Z,2.31
2024-04-24T04:34:36.453Z,1.76
2024-04-24T04:37:05.617Z,0.42
2024-04-24T04:39:36.266Z,0.81
2024-04-24T04:42:05.712Z,2.37
2024-04-24T04:44:45.262Z,-0.43
2024-04-24T04:47:12.153Z,2.05
2024-04-24T04:49:39.155Z,1.30
2024-04-24T04:52:14.512Z,-0.47
2024-04-24T04:54:51.300Z,0.66
2024-04-24T04:57:23.917Z,0.40
2024-04-24T04:59:53.627Z,1.17
2024-04-24T05:02:22.164Z,2.28
2024-04-24T05:04:49.182Z,0.50
2024-04-24T05:07:15.984Z,1.49
2024-04-24T05:09:45.710Z,-0.18
2024-04-24T05:12:16.348Z,2.52
2024-04-24T05:14:45.549Z,0.42
2024-04-24T05:17:12.538Z,1.91
2024-04-24T05:19:41.572Z,2.09
2024-04-24T05:22:10.366Z,0.91
2024-04-24T05:24:40.118Z,2.31
2024-04-24T05:27:39.297Z,2.56
2024-04-24T05:30:06.752Z,1.25
2024-04-24T05:32:33.645Z,2.44
2024-04-24T05:35:00.508Z,2.38
2024-04-24T05:37:29.524Z,0.78
2024-04-24T05:39:56.370Z,0.40
2024-04-24T05:42:24.769Z,1.07
2024-04-24T05:44:51.562Z,1.10
2024-04-24T05:47:21.788Z,2.53
2024-04-24T05:49:48.680Z,2.61
2024-04-24T05:52:15.513Z,2.53
2024-04-24T05:54:42.212Z,2.15
2024-04-24T05:57:08.969Z,1.75
2024-04-24T05:59:35.884Z,2.80
2024-04-24T06:02:02.634Z,2.71
2024-04-24T06:04:29.405Z,2.59
2024-04-24T06:06:56.502Z,2.35
2024-04-24T06:09:25.114Z,2.90
2024-04-24T06:11:53.071Z,2.90
2024-04-24T06:14:22.309Z,1.40
2024-04-24T06:16:52.743Z,2.80
2024-04-24T06:19:22.085Z,2.43
2024-04-24T06:21:49.040Z,2.89
2024-04-24T06:24:18.760Z,2.02
2024-04-24T06:26:55.107Z,1.76
2024-04-24T06:29:24.703Z,2.14
2024-04-24T06:31:51.725Z,2.55
2024-04-24T06:34:19.751Z,2.01
2024-04-24T06:37:16.609Z,0.18
2024-04-24T06:39:46.024Z,1.76
2024-04-24T06:42:13.061Z,1.24
2024-04-24T06:44:40.033Z,2.21
2024-04-24T06:47:07.958Z,1.61
2024-04-24T06:49:36.192Z,2.07
2024-04-24T06:52:04.897Z,3.13
2024-04-24T06:54:35.863Z,2.84
2024-04-24T06:57:10.177Z,1.75
2024-04-24T06:59:37.076Z,1.81
2024-04-24T07:02:04.090Z,3.34
2024-04-24T07:04:30.942Z,3.14
2024-04-24T07:06:57.664Z,1.56
2024-04-24T07:09:24.477Z,2.11
2024-04-24T07:11:51.484Z,1.73
2024-04-24T07:14:21.196Z,1.86
2024-04-24T07:16:48.167Z,3.09
2024-04-24T07:19:17.878Z,1.94
2024-04-24T07:21:44.952Z,0.99
2024-04-24T07:24:17.505Z,2.10
2024-04-24T07:26:48.583Z,1.43
2024-04-24T07:29:15.574Z,1.14
2024-04-24T07:31:49.768Z,2.12
2024-04-24T07:34:20.800Z,2.85
2024-04-24T07:36:50.205Z,1.33
2024-04-24T07:39:18.377Z,2.23
2024-04-24T07:41:45.607Z,2.30
2024-04-24T07:44:12.466Z,2.73
2024-04-24T07:46:41.662Z,4.18
2024-04-24T07:49:08.686Z,2.14
2024-04-24T07:51:35.699Z,2.88
2024-04-24T07:54:02.541Z,3.65
2024-04-24T07:56:31.842Z,3.84
2024-04-24T07:58:59.868Z,4.12
2024-04-24T08:01:26.920Z,2.52
2024-04-24T08:03:56.045Z,2.01
2024-04-24T08:06:23.043Z,3.37
2024-04-24T08:08:51.254Z,2.61
2024-04-24T08:11:18.310Z,3.16
2024-04-24T08:13:45.252Z,4.74
2024-04-24T08:16:12.109Z,2.82
2024-04-24T08:18:38.917Z,3.77
2024-04-24T08:21:05.723Z,3.61
2024-04-24T08:23:32.668Z,4.50
2024-04-24T08:26:03.741Z,2.92
2024-04-24T08:28:38.438Z,3.39
2024-04-24T08:31:08.955Z,5.53
2024-04-24T08:33:38.611Z,4.97
2024-04-24T08:36:10.139Z,4.99
2024-04-24T08:38:38.777Z,5.45
2024-04-24T08:41:14.747Z,4.40
2024-04-24T08:43:43.253Z,3.88
2024-04-24T08:46:13.889Z,5.44
2024-04-24T08:48:44.807Z,4.84
2024-04-24T08:51:16.547Z,4.26
2024-04-24T08:54:09.445Z,4.61
2024-04-24T08:56:40.337Z,3.92
2024-04-24T08:59:27.881Z,5.00
2024-04-24T09:01:59.064Z,4.39
2024-04-24T09:04:27.668Z,5.68
2024-04-24T09:07:01.398Z,5.29
2024-04-24T09:09:30.148Z,5.88
2024-04-24T09:12:18.053Z,4.16
2024-04-24T09:14:50.114Z,4.99
2024-04-24T09:17:17.035Z,5.51
2024-04-24T09:19:43.940Z,6.13
2024-04-24T09:22:12.161Z,6.05
2024-04-24T09:24:46.434Z,4.29
2024-04-24T09:27:17.374Z,5.43
2024-04-24T09:29:44.127Z,5.58
2024-04-24T09:32:12.486Z,4.23
2024-04-24T09:34:44.483Z,4.58
2024-04-24T09:37:14.515Z,3.09
2024-04-24T09:39:41.907Z,5.05
2024-04-24T09:42:15.142Z,4.57
2024-04-24T09:44:48.268Z,4.56
2024-04-24T09:47:22.175Z,3.17
2024-04-24T09:49:55.085Z,5.59
2024-04-24T09:52:22.022Z,5.33
2024-04-24T09:54:52.534Z,5.81
2024-04-24T09:57:27.048Z,4.10
2024-04-24T10:00:00.407Z,4.73
2024-04-24T10:03:01.020Z,3.36
2024-04-24T10:05:36.037Z,4.38
2024-04-24T10:08:17.053Z,5.70
2024-04-24T10:10:49.441Z,3.92
2024-04-24T10:13:20.415Z,5.78
2024-04-24T10:15:54.346Z,5.71
2024-04-24T10:18:22.682Z,5.38
2024-04-24T10:20:51.628Z,5.09
2024-04-24T10:23:18.800Z,3.97
2024-04-24T10:25:48.083Z,4.76
2024-04-24T10:28:15.704Z,4.03
2024-04-24T10:30:43.881Z,3.76
2024-04-24T10:33:12.026Z,4.88
2024-04-24T10:35:40.442Z,4.33
2024-04-24T10:38:08.583Z,5.34
2024-04-24T10:40:36.014Z,5.06
2024-04-24T10:43:07.343Z,5.24
2024-04-24T10:45:42.815Z,5.36
2024-04-24T10:48:14.374Z,4.99
2024-04-24T10:50:42.395Z,5.76
2024-04-24T10:53:15.865Z,4.32
2024-04-24T10:55:54.907Z,5.90
2024-04-24T10:58:23.094Z,4.79
2024-04-24T11:00:50.175Z,6.21
2024-04-24T11:03:18.532Z,5.73
2024-04-24T11:05:45.706Z,6.76
2024-04-24T11:08:21.182Z,4.77
2024-04-24T11:10:59.547Z,6.48
2024-04-24T11:13:35.422Z,7.72
2024-04-24T11:16:08.758Z,6.74
2024-04-24T11:18:38.232Z,5.84
2024-04-24T11:21:05.276Z,6.66
2024-04-24T11:23:40.628Z,5.58
2024-04-24T11:26:07.545Z,5.61
2024-04-24T11:28:34.710Z,7.28
2024-04-24T11:31:01.802Z,7.94
2024-04-24T11:33:29.273Z,6.72
2024-04-24T11:35:56.807Z,6.97
2024-04-24T11:38:23.747Z,6.62
2024-04-24T11:40:50.709Z,7.56
2024-04-24T11:43:18.549Z,7.59
2024-04-24T11:45:46.356Z,7.62
2024-04-24T11:48:13.362Z,7.48
2024-04-24T11:50:40.406Z,6.02
2024-04-24T11:53:09.964Z,8.08
2024-04-24T11:55:36.901Z,7.16
2024-04-24T11:58:13.657Z,6.50
2024-04-24T12:00:41.527Z,6.27
2024-04-24T12:03:09.486Z,6.37
2024-04-24T12:05:40.209Z,4.69
2024-04-24T12:08:14.975Z,5.32
2024-04-24T12:10:46.891Z,4.09
2024-04-24T12:13:17.600Z,5.69
2024-04-24T12:15:58.248Z,4.92
2024-04-24T12:18:28.711Z,5.15
2024-04-24T12:21:07.951Z,6.87
2024-04-24T12:23:34.903Z,5.07
2024-04-24T12:26:03.953Z,6.33
2024-04-24T12:28:30.778Z,5.09
2024-04-24T12:30:59.958Z,5.69
2024-04-24T12:33:27.255Z,6.02
2024-04-24T12:35:54.187Z,5.87
2024-04-24T12:38:20.947Z,6.18
2024-04-24T12:40:47.710Z,6.94
2024-04-24T12:43:14.668Z,7.35
2024-04-24T12:45:42.097Z,6.86
2024-04-24T12:48:10.507Z,5.95
2024-04-24T12:50:37.413Z,7.16
2024-04-24T12:53:04.516Z,7.69
2024-04-24T12:55:31.299Z,7.67
2024-04-24T12:57:58.131Z,6.94
2024-04-24T13:00:28.169Z,7.54
2024-04-24T13:02:55.162Z,7.72
2024-04-24T13:05:22.027Z,7.42
2024-04-24T13:07:49.872Z,7.65
2024-04-24T13:10:21.076Z,6.27
2024-04-24T13:12:47.882Z,6.70
2024-04-24T13:15:15.929Z,6.77
2024-04-24T13:17:43.029Z,5.94
2024-04-24T13:20:12.426Z,6.07
2024-04-24T13:22:40.282Z,5.59
2024-04-24T13:25:11.765Z,4.66
2024-04-24T13:27:38.536Z,7.22
2024-04-24T13:30:07.678Z,6.23
2024-04-24T13:32:35.832Z,4.77
2024-04-24T13:35:11.113Z,5.46
2024-04-24T13:37:40.363Z,5.14
2024-04-24T13:40:15.347Z,6.07
2024-04-24T13:42:42.574Z,6.78
2024-04-24T13:45:16.019Z,5.24
2024-04-24T13:47:51.808Z,5.31
2024-04-24T13:50:29.574Z,5.50
2024-04-24T13:52:56.664Z,6.27
2024-04-24T13:55:24.966Z,5.98
2024-04-24T13:57:51.852Z,5.69
2024-04-24T14:00:21.711Z,6.26
2024-04-24T14:02:51.930Z,5.02
2024-04-24T14:05:25.991Z,6.05
2024-04-24T14:07:52.905Z,4.94
2024-04-24T14:10:24.799Z,3.58
2024-04-24T14:12:51.813Z,4.45
2024-04-24T14:15:19.690Z,4.42
2024-04-24T14:17:46.612Z,4.39
2024-04-24T14:20:13.767Z,5.53
2024-04-24T14:22:40.648Z,5.43
2024-04-24T14:25:07.633Z,3.89
2024-04-24T14:27:34.491Z,4.83
2024-04-24T14:30:01.423Z,4.79
2024-04-24T14:32:31.655Z,4.35
2024-04-24T14:34:58.944Z,3.04
2024-04-24T14:37:25.777Z,5.42
2024-04-24T14:39:53.659Z,5.89
2024-04-24T14:42:22.367Z,4.79
2024-04-24T14:44:49.210Z,5.63
2024-04-24T14:47:17.448Z,4.88
2024-04-24T14:49:45.045Z,5.80
2024-04-24T14:52:14.291Z,5.43
2024-04-24T14:54:41.410Z,5.82
2024-04-24T14:57:09.834Z,5.78
2024-04-24T14:59:36.687Z,4.80
2024-04-24T15:02:03.730Z,3.88
2024-04-24T15:04:30.914Z,4.52
2024-04-24T15:07:04.245Z,5.96
2024-04-24T15:09:31.112Z,4.62
2024-04-24T15:11:58.065Z,3.53
2024-04-24T15:14:28.163Z,4.48
2024-04-24T15:16:57.719Z,5.32
2024-04-24T15:19:26.777Z,5.85
2024-04-24T15:21:57.265Z,5.92
2024-04-24T15:24:25.538Z,4.16
2024-04-24T15:26:53.746Z,4.16
2024-04-24T15:29:28.282Z,4.70
2024-04-24T15:32:05.488Z,4.04
2024-04-24T15:34:44.319Z,3.94
2024-04-24T15:37:28.819Z,3.37
2024-04-24T15:39:57.949Z,5.07
2024-04-24T15:42:38.283Z,3.43
2024-04-24T15:45:08.927Z,5.54
2024-04-24T15:47:37.789Z,3.88
2024-04-24T15:50:06.190Z,5.67
2024-04-24T15:52:33.268Z,3.43
2024-04-24T15:55:01.655Z,3.60
2024-04-24T15:57:33.228Z,4.21
2024-04-24T16:00:03.703Z,4.08
2024-04-24T16:02:40.659Z,4.73
2024-04-24T16:05:07.642Z,5.32
2024-04-24T16:07:34.431Z,5.25
2024-04-24T16:10:06.733Z,5.35
2024-04-24T16:12:33.695Z,3.39
2024-04-24T16:15:02.850Z,4.70
2024-04-24T16:17:29.956Z,5.40
2024-04-24T16:19:58.716Z,4.72
2024-04-24T16:22:30.693Z,4.10
2024-04-24T16:24:57.659Z,3.89
2024-04-24T16:27:31.792Z,4.44
2024-04-24T16:29:59.710Z,4.84
2024-04-24T16:32:31.139Z,4.13
2024-04-24T16:34:58.097Z,4.65
2024-04-24T16:37:25.158Z,4.56
2024-04-24T16:39:51.985Z,5.67
2024-04-24T16:42:19.110Z,4.69
2024-04-24T16:44:45.926Z,4.09
2024-04-24T16:47:12.856Z,5.87
2024-04-24T16:49:40.407Z,5.59
2024-04-24T16:52:11.917Z,4.65
2024-04-24T16:54:38.847Z,5.22
2024-04-24T16:57:06.487Z,4.46
2024-04-24T16:59:33.630Z,3.62
2024-04-24T17:02:07.075Z,5.36
2024-04-24T17:04:36.764Z,6.05
2024-04-24T17:07:09.743Z,5.53
2024-04-24T17:09:57.023Z,3.76
2024-04-24T17:12:26.326Z,3.15
2024-04-24T17:14:53.275Z,4.38
2024-04-24T17:17:22.208Z,3.39
2024-04-24T17:19:49.253Z,4.15
2024-04-24T17:22:16.029Z,5.81
2024-04-24T17:24:44.720Z,3.50
2024-04-24T17:27:11.463Z,4.52
2024-04-24T17:29:39.011Z,5.53
2024-04-24T17:32:05.949Z,5.46
2024-04-24T17:34:32.730Z,4.69
2024-04-24T17:36:59.515Z,4.73
2024-04-24T17:39:27.385Z,5.59
2024-04-24T17:41:54.228Z,5.32
2024-04-24T17:44:21.310Z,4.51
2024-04-24T17:46:48.664Z,5.58
2024-04-24T17:49:15.507Z,3.80
2024-04-24T17:51:42.249Z,3.87
2024-04-24T17:54:09.322Z,4.70
2024-04-24T17:56:39.448Z,4.56
2024-04-24T17:59:06.365Z,3.79
2024-04-24T18:01:33.224Z,4.61
2024-04-24T18:04:01.167Z,4.74
2024-04-24T18:06:29.391Z,3.22
2024-04-24T18:08:58.990Z,3.25
2024-04-24T18:11:26.256Z,3.86
2024-04-24T18:13:53.362Z,2.30
2024-04-24T18:16:20.386Z,4.12
2024-04-24T18:18:52.272Z,3.08
2024-04-24T18:21:25.808Z,1.44
2024-04-24T18:24:00.197Z,1.37
2024-04-24T18:26:32.704Z,2.35
2024-04-24T18:29:01.154Z,2.67
2024-04-24T18:31:33.256Z,2.55
2024-04-24T18:34:00.503Z,3.32
2024-04-24T18:36:27.650Z,1.12
2024-04-24T18:38:59.853Z,1.08
2024-04-24T18:41:26.971Z,2.07
2024-04-24T18:43:56.308Z,3.19
2024-04-24T18:46:23.262Z,3.06
2024-04-24T18:48:58.581Z,1.27
2024-04-24T18:51:25.629Z,2.55
2024-04-24T18:53:52.590Z,1.21
2024-04-24T18:56:21.033Z,3.15
2024-04-24T18:58:48.161Z,1.43
2024-04-24T19:01:17.335Z,3.77
2024-04-24T19:03:47.367Z,3.38
2024-04-24T19:06:14.135Z,3.89
2024-04-24T19:08:46.389Z,3.18
2024-04-24T19:11:13.345Z,2.36
2024-04-24T19:13:48.425Z,2.45
2024-04-24T19:16:17.054Z,3.41
2024-04-24T19:18:49.715Z,0.87
2024-04-24T19:21:19.078Z,2.66
2024-04-24T19:23:47.239Z,3.41
2024-04-24T19:26:33.514Z,3.11
2024-04-24T19:29:02.758Z,0.85
2024-04-24T19:31:33.457Z,3.24
2024-04-24T19:34:02.216Z,2.18
2024-04-24T19:36:29.095Z,2.28
2024-04-24T19:39:18.679Z,3.26
2024-04-24T19:41:46.614Z,1.08
2024-04-24T19:44:15.107Z,2.52
2024-04-24T19:46:44.083Z,2.12
2024-04-24T19:49:13.328Z,2.16
2024-04-24T19:51:42.691Z,3.45
2024-04-24T19:54:09.700Z,2.91
2024-04-24T19:56:39.828Z,2.63
2024-04-24T19:59:12.005Z,2.80
2024-04-24T20:01:42.726Z,3.55
2024-04-24T20:04:13.778Z,1.90
2024-04-24T20:06:45.696Z,1.32
2024-04-24T20:09:18.671Z,1.84
2024-04-24T20:11:47.765Z,1.06
2024-04-24T20:14:17.253Z,1.36
2024-04-24T20:16:46.491Z,3.50
2024-04-24T20:19:17.610Z,3.33
2024-04-24T20:21:45.892Z,1.08
2024-04-24T20:24:15.083Z,3.33
2024-04-24T20:26:48.561Z,3.19
2024-04-24T20:29:15.506Z,2.41
2024-04-24T20:31:42.339Z,3.28
2024-04-24T20:34:09.910Z,2.13
2024-04-24T20:36:36.763Z,3.18
2024-04-24T20:39:07.355Z,3.25
2024-04-24T20:41:39.171Z,1.56
2024-04-24T20:44:06.011Z,3.23
2024-04-24T20:46:38.184Z,2.75
2024-04-24T20:49:05.869Z,2.00
2024-04-24T20:51:41.144Z,1.95
2024-04-24T20:54:11.155Z,1.69
2024-04-24T20:56:38.753Z,2.54
2024-04-24T20:59:08.948Z,2.64
2024-04-24T21:01:40.920Z,1.79
2024-04-24T21:04:09.908Z,0.38
2024-04-24T21:06:37.207Z,2.26
2024-04-24T21:09:04.312Z,0.23
2024-04-24T21:11:31.342Z,1.35
2024-04-24T21:13:58.497Z,0.49
2024-04-24T21:16:32.750Z,3.02
2024-04-24T21:18:59.754Z,1.69
2024-04-24T21:21:31.664Z,2.28
2024-04-24T21:23:58.364Z,2.87
2024-04-24T21:26:29.526Z,1.33
2024-04-24T21:28:56.621Z,1.45
2024-04-24T21:31:41.957Z,0.07
2024-04-24T21:34:17.587Z,0.20
2024-04-24T21:36:46.946Z,-0.13
2024-04-24T21:39:15.953Z,0.96
2024-04-24T21:41:44.773Z,1.86
2024-04-24T21:44:11.697Z,2.53
2024-04-24T21:46:38.707Z,1.54
2024-04-24T21:49:05.651Z,2.69
2024-04-24T21:51:32.454Z,1.32
2024-04-24T21:53:59.237Z,2.32
2024-04-24T21:56:26.411Z,1.54
2024-04-24T21:58:56.292Z,2.09
2024-04-24T22:01:23.103Z,2.73
2024-04-24T22:03:52.180Z,2.12
2024-04-24T22:06:23.563Z,2.35
2024-04-24T22:08:50.726Z,0.65
2024-04-24T22:11:18.435Z,0.73
2024-04-24T22:13:45.338Z,1.63
2024-04-24T22:16:12.922Z,2.22
2024-04-24T22:18:39.929Z,1.26
2024-04-24T22:21:06.819Z,2.38
2024-04-24T22:23:33.725Z,2.27
2024-04-24T22:26:00.570Z,2.16
2024-04-24T22:28:27.579Z,1.67
2024-04-24T22:30:55.996Z,1.30
2024-04-24T22:33:25.803Z,2.33
2024-04-24T22:35:52.736Z,2.18
2024-04-24T22:38:19.494Z,1.92
2024-04-24T22:40:46.471Z,1.54
2024-04-24T22:43:13.377Z,1.36
2024-04-24T22:45:42.634Z,1.69
2024-04-24T22:48:09.614Z,1.49
2024-04-24T22:50:40.516Z,2.46
2024-04-24T22:53:14.233Z,0.24
2024-04-24T22:55:41.930Z,-0.57
2024-04-24T22:58:08.712Z,2.12
2024-04-24T23:00:35.711Z,0.24
2024-04-24T23:03:02.662Z,1.70
2024-04-24T23:05:31.823Z,0.99
2024-04-24T23:07:58.594Z,1.03
2024-04-24T23:10:25.402Z,1.83
2024-04-24T23:12:52.155Z,2.16
2024-04-24T23:15:18.899Z,2.18
2024-04-24T23:17:45.868Z,2.00
2024-04-24T23:20:12.961Z,2.00
2024-04-24T23:22:39.707Z,1.52
2024-04-24T23:25:06.879Z,0.77
2024-04-24T23:27:36.640Z,1.92
2024-04-24T23:30:03.628Z,1.92
2024-04-24T23:32:30.492Z,2.21
2024-04-24T23:34:57.550Z,0.72
2024-04-24T23:37:24.311Z,1.98
2024-04-24T23:39:58.349Z,1.90
2024-04-24T23:42:25.193Z,0.44
2024-04-24T23:44:54.538Z,-0.07
2024-04-24T23:47:23.651Z,0.61
2024-04-24T23:49:50.393Z,1.76
2024-04-24T23:52:17.146Z,2.07
2024-04-24T23:54:43.904Z,1.95
2024-04-24T23:57:10.877Z,1.83
2024-04-24T23:59:39.959Z,2.28
